createdAt,value
2018-03-07T05:00:39.563Z,85.82
2018-03-07T05:01:04.976Z,85.82
2018-03-07T05:01:30.626Z,86.3
2018-03-07T05:01:56.174Z,85.91
2018-03-07T05:02:21.658Z,86.01
2018-03-07T05:02:47.375Z,86.01
2018-03-07T05:03:12.754Z,85.82
2018-03-07T05:03:38.235Z,85.96
2018-03-07T05:04:03.714Z,85.91
2018-03-07T05:04:29.172Z,86.01
2018-03-07T05:04:54.698Z,86.01
2018-03-07T05:05:20.124Z,85.72
2018-03-07T05:05:45.543Z,85.72
2018-03-07T05:06:11.047Z,85.63
2018-03-07T05:06:36.484Z,86.01
2018-03-07T05:07:01.931Z,86.05
2018-03-07T05:07:27.522Z,85.91
2018-03-07T05:07:53.046Z,86.24
2018-03-07T05:08:18.525Z,85.91
2018-03-07T05:08:43.990Z,85.91
2018-03-07T05:09:09.394Z,86.01
2018-03-07T05:09:34.970Z,85.82
2018-03-07T05:10:00.398Z,85.86
2018-03-07T05:10:25.814Z,86.01
2018-03-07T05:10:51.399Z,85.82
2018-03-07T05:11:16.865Z,85.82
2018-03-07T05:11:42.350Z,86.01
2018-03-07T05:12:07.781Z,86.01
2018-03-07T05:12:33.260Z,86.01
2018-03-07T05:12:58.733Z,85.82
2018-03-07T05:13:24.199Z,86.11
2018-03-07T05:13:49.704Z,85.72
2018-03-07T05:14:15.160Z,86.11
2018-03-07T05:14:40.597Z,86.11
2018-03-07T05:15:06.088Z,85.82
2018-03-07T05:15:31.555Z,86.01
2018-03-07T05:15:57.033Z,86.01
2018-03-07T05:16:22.513Z,86.2
2018-03-07T05:16:48.005Z,86.15
2018-03-07T05:17:13.446Z,85.91
2018-03-07T05:17:38.923Z,86.11
2018-03-07T05:18:04.412Z,86.58
2018-03-07T05:18:29.879Z,86.15
2018-03-07T05:18:55.346Z,85.91
2018-03-07T05:19:20.815Z,86.01
2018-03-07T05:19:46.280Z,85.91
2018-03-07T05:20:11.722Z,86.2
2018-03-07T05:20:37.181Z,85.91
2018-03-07T05:21:02.717Z,85.91
2018-03-07T05:21:28.184Z,86.01
2018-03-07T05:21:53.612Z,86.2
2018-03-07T05:22:19.109Z,86.01
2018-03-07T05:22:44.559Z,86.01
2018-03-07T05:23:10.025Z,86.01
2018-03-07T05:23:35.505Z,85.91
2018-03-07T05:24:00.997Z,86.01
2018-03-07T05:24:26.497Z,86.2
2018-03-07T05:24:51.937Z,86.11
2018-03-07T05:25:17.448Z,86.11
2018-03-07T05:25:42.957Z,86.11
2018-03-07T05:26:08.366Z,86.15
2018-03-07T05:26:33.886Z,86.11
2018-03-07T05:26:59.455Z,86.11
2018-03-07T05:27:24.911Z,86.2
2018-03-07T05:27:50.473Z,85.82
2018-03-07T05:28:15.883Z,85.82
2018-03-07T05:28:41.476Z,85.63
2018-03-07T05:29:07.073Z,85.82
2018-03-07T05:29:32.592Z,86.01
2018-03-07T05:29:58.062Z,86.01
2018-03-07T05:30:23.591Z,85.72
2018-03-07T05:30:48.951Z,86.11
2018-03-07T05:31:14.508Z,86.11
2018-03-07T05:31:40.097Z,85.72
2018-03-07T05:32:05.466Z,85.72
2018-03-07T05:32:30.890Z,85.91
2018-03-07T05:32:56.488Z,86.01
2018-03-07T05:33:21.925Z,85.82
2018-03-07T05:33:47.462Z,85.82
2018-03-07T05:34:12.941Z,86.2
2018-03-07T05:34:38.529Z,86.11
2018-03-07T05:35:03.995Z,85.72
2018-03-07T05:35:29.704Z,86.2
2018-03-07T05:35:55.065Z,85.91
2018-03-07T05:36:20.631Z,86.01
2018-03-07T05:36:46.512Z,86.01
2018-03-07T05:37:12.157Z,86.01
2018-03-07T05:37:37.639Z,86.01
2018-03-07T05:38:03.071Z,86.2
2018-03-07T05:38:28.555Z,86.2
2018-03-07T05:38:54.220Z,86.2
2018-03-07T05:39:19.660Z,85.91
2018-03-07T05:39:45.171Z,85.72
2018-03-07T05:40:10.699Z,85.63
2018-03-07T05:40:36.162Z,85.72
2018-03-07T05:41:01.658Z,85.91
2018-03-07T05:41:27.203Z,86.01
2018-03-07T05:41:52.734Z,86.01
2018-03-07T05:42:18.231Z,86.01
2018-03-07T05:42:43.710Z,86.01
2018-03-07T05:43:09.264Z,86.2
2018-03-07T05:43:34.747Z,86.01
2018-03-07T05:44:00.216Z,86.01
2018-03-07T05:44:25.788Z,86.01
2018-03-07T05:44:51.336Z,86.01
2018-03-07T05:45:16.793Z,86.11
2018-03-07T05:45:42.303Z,85.91
2018-03-07T05:46:07.836Z,86.01
2018-03-07T05:47:01.287Z,86.11
2018-03-07T05:47:26.770Z,85.63
2018-03-07T05:47:52.298Z,86.01
2018-03-07T05:48:17.851Z,85.72
2018-03-07T05:48:43.354Z,85.82
2018-03-07T05:49:08.883Z,86.01
2018-03-07T05:49:34.336Z,85.91
2018-03-07T05:49:59.861Z,85.82
2018-03-07T05:50:25.439Z,86.58
2018-03-07T05:50:50.964Z,85.91
2018-03-07T05:51:16.436Z,86.77
2018-03-07T05:51:41.928Z,86.77
2018-03-07T05:52:07.452Z,86.77
2018-03-07T05:52:32.906Z,86.68
2018-03-07T05:52:58.420Z,86.68
2018-03-07T05:53:23.947Z,86.68
2018-03-07T05:53:49.392Z,86.39
2018-03-07T05:54:42.820Z,86.49
2018-03-07T05:55:08.316Z,86.39
2018-03-07T05:55:33.790Z,86.58
2018-03-07T05:55:59.270Z,86.39
2018-03-07T05:56:24.754Z,86.39
2018-03-07T05:56:50.242Z,86.11
2018-03-07T05:57:15.688Z,86.11
2018-03-07T05:57:41.218Z,86.11
2018-03-07T05:58:06.744Z,86.3
2018-03-07T05:58:32.198Z,86.39
2018-03-07T05:58:57.665Z,86.49
2018-03-07T05:59:23.148Z,86.39
2018-03-07T05:59:48.677Z,86.39
2018-03-07T06:00:14.157Z,86.39
2018-03-07T06:00:39.660Z,86.49
2018-03-07T06:01:05.154Z,86.49
2018-03-07T06:01:30.686Z,86.39
2018-03-07T06:01:56.183Z,86.2
2018-03-07T06:02:21.708Z,86.3
2018-03-07T06:02:47.194Z,86.49
2018-03-07T06:03:12.676Z,86.3
2018-03-07T06:04:11.201Z,86.2
2018-03-07T06:04:36.697Z,86.58
2018-03-07T06:05:02.161Z,86.58
2018-03-07T06:05:27.778Z,86.3
2018-03-07T06:05:53.222Z,86.39
2018-03-07T06:06:18.737Z,86.58
2018-03-07T06:06:44.247Z,86.49
2018-03-07T06:07:09.767Z,86.39
2018-03-07T06:07:35.259Z,86.49
2018-03-07T06:08:00.796Z,86.77
2018-03-07T06:08:26.289Z,86.77
2018-03-07T06:08:51.763Z,86.87
2018-03-07T06:09:45.229Z,87.05
2018-03-07T06:10:10.712Z,87.15
2018-03-07T06:10:36.172Z,86.77
2018-03-07T06:11:01.682Z,87.05
2018-03-07T06:11:27.160Z,87.15
2018-03-07T06:11:52.661Z,86.96
2018-03-07T06:12:18.131Z,87.01
2018-03-07T06:12:43.597Z,86.82
2018-03-07T06:13:09.052Z,86.82
2018-03-07T06:13:34.622Z,86.68
2018-03-07T06:14:00.165Z,86.77
2018-03-07T06:14:25.655Z,86.82
2018-03-07T06:14:51.168Z,86.96
2018-03-07T06:15:16.654Z,86.72
2018-03-07T06:15:42.168Z,86.96
2018-03-07T06:16:07.645Z,86.49
2018-03-07T06:16:33.139Z,86.49
2018-03-07T06:16:58.616Z,86.77
2018-03-07T06:17:24.105Z,86.68
2018-03-07T06:17:49.574Z,86.91
2018-03-07T06:18:15.074Z,86.96
2018-03-07T06:18:40.524Z,87.01
2018-03-07T06:19:06.057Z,87.05
2018-03-07T06:19:31.548Z,86.91
2018-03-07T06:19:57.006Z,86.87
2018-03-07T06:20:22.593Z,87.3
2018-03-07T06:20:48.078Z,86.77
2018-03-07T06:21:13.559Z,86.68
2018-03-07T06:21:39.055Z,86.68
2018-03-07T06:22:04.520Z,86.68
2018-03-07T06:22:30.057Z,86.77
2018-03-07T06:22:55.554Z,86.96
2018-03-07T06:23:20.971Z,86.87
2018-03-07T06:23:46.441Z,87.15
2018-03-07T06:24:50.054Z,87.05
2018-03-07T06:25:15.552Z,86.96
2018-03-07T06:25:41.025Z,86.96
2018-03-07T06:26:06.582Z,87.01
2018-03-07T06:26:32.084Z,86.87
2018-03-07T06:26:57.667Z,86.96
2018-03-07T06:27:23.055Z,87.05
2018-03-07T06:27:48.527Z,86.96
2018-03-07T06:28:14.050Z,86.54
2018-03-07T06:28:39.502Z,87.05
2018-03-07T06:29:04.982Z,86.91
2018-03-07T06:29:30.486Z,86.96
2018-03-07T06:29:55.970Z,86.82
2018-03-07T06:30:21.477Z,87.01
2018-03-07T06:30:46.994Z,86.91
2018-03-07T06:31:12.458Z,86.91
2018-03-07T06:31:37.974Z,87.01
2018-03-07T06:32:03.469Z,87.01
2018-03-07T06:32:28.970Z,86.54
2018-03-07T06:32:54.449Z,86.91
2018-03-07T06:33:19.949Z,87.01
2018-03-07T06:33:45.438Z,86.91
2018-03-07T06:34:10.986Z,87.2
2018-03-07T06:34:36.441Z,87.11
2018-03-07T06:35:01.940Z,87.01
2018-03-07T06:35:27.433Z,86.91
2018-03-07T06:35:52.981Z,87.11
2018-03-07T06:36:18.444Z,87.39
2018-03-07T06:37:22.045Z,86.91
2018-03-07T06:37:47.561Z,87.49
2018-03-07T06:38:13.034Z,87.39
2018-03-07T06:38:38.533Z,87.01
2018-03-07T06:39:04.017Z,86.63
2018-03-07T06:40:07.619Z,87.49
2018-03-07T06:40:33.092Z,87.2
2018-03-07T06:40:58.611Z,87.2
2018-03-07T06:41:24.119Z,87.3
2018-03-07T06:41:49.595Z,87.2
2018-03-07T06:42:15.095Z,87.3
2018-03-07T06:42:40.589Z,87.58
2018-03-07T06:43:06.099Z,87.49
2018-03-07T06:43:31.579Z,87.3
2018-03-07T06:43:57.058Z,86.82
2018-03-07T06:44:22.556Z,87.01
2018-03-07T06:44:48.044Z,87.39
2018-03-07T06:45:13.552Z,87.01
2018-03-07T06:45:39.048Z,87.11
2018-03-07T06:46:04.568Z,87.49
2018-03-07T06:46:30.116Z,86.82
2018-03-07T06:46:55.537Z,87.58
2018-03-07T06:47:21.030Z,87.39
2018-03-07T06:47:46.599Z,87.96
2018-03-07T06:48:12.037Z,87.01
2018-03-07T06:48:37.528Z,87.01
2018-03-07T06:49:02.990Z,87.68
2018-03-07T06:49:28.497Z,87.2
2018-03-07T06:49:53.970Z,87.87
2018-03-07T06:50:19.509Z,87.87
2018-03-07T06:51:23.086Z,87.68
2018-03-07T06:51:48.600Z,87.96
2018-03-07T06:52:14.097Z,88.15
2018-03-07T06:52:39.590Z,87.77
2018-03-07T06:53:05.117Z,88.06
2018-03-07T06:53:30.628Z,87.58
2018-03-07T06:53:56.129Z,88.06
2018-03-07T06:54:21.644Z,87.77
2018-03-07T06:54:47.140Z,87.68
2018-03-07T06:55:12.624Z,87.58
2018-03-07T06:55:38.147Z,87.68
2018-03-07T06:56:03.654Z,87.68
2018-03-07T06:56:29.131Z,87.68
2018-03-07T06:56:54.645Z,87.77
2018-03-07T06:57:20.114Z,87.77
2018-03-07T06:57:45.575Z,87.77
2018-03-07T06:58:59.405Z,87.87
2018-03-07T06:59:24.899Z,87.96
2018-03-07T06:59:50.404Z,87.87
2018-03-07T07:00:15.918Z,87.77
2018-03-07T07:01:09.330Z,87.96
2018-03-07T07:01:34.827Z,87.96
2018-03-07T07:02:00.292Z,87.77
2018-03-07T07:02:53.725Z,87.96
2018-03-07T07:03:19.215Z,87.77
2018-03-07T07:03:44.712Z,87.68
2018-03-07T07:04:10.237Z,87.96
2018-03-07T07:04:35.772Z,87.87
2018-03-07T07:05:01.271Z,87.68
2018-03-07T07:05:26.821Z,87.77
2018-03-07T07:05:52.269Z,87.77
2018-03-07T07:06:17.782Z,87.58
2018-03-07T07:06:43.283Z,88.34
2018-03-07T07:07:08.759Z,88.72
2018-03-07T07:08:02.267Z,88.72
2018-03-07T07:08:27.763Z,88.62
2018-03-07T07:08:53.254Z,88.53
2018-03-07T07:09:18.800Z,88.53
2018-03-07T07:09:44.304Z,88.72
2018-03-07T07:10:09.936Z,88.72
2018-03-07T07:10:35.431Z,88.53
2018-03-07T07:11:00.904Z,88.15
2018-03-07T07:11:26.410Z,87.96
2018-03-07T07:11:51.951Z,88.24
2018-03-07T07:12:17.452Z,88.06
2018-03-07T07:12:42.941Z,88.06
2018-03-07T07:13:08.439Z,87.77
2018-03-07T07:13:33.932Z,87.77
2018-03-07T07:13:59.427Z,87.87
2018-03-07T07:14:24.980Z,88.06
2018-03-07T07:14:50.462Z,87.82
2018-03-07T07:15:15.941Z,88.29
2018-03-07T07:15:41.414Z,88.29
2018-03-07T07:16:06.951Z,88.48
2018-03-07T07:16:32.407Z,88.48
2018-03-07T07:16:58.004Z,88.2
2018-03-07T07:17:23.469Z,88.2
2018-03-07T07:17:48.974Z,88.01
2018-03-07T07:18:14.483Z,88.29
2018-03-07T07:18:39.942Z,87.82
2018-03-07T07:19:05.410Z,87.82
2018-03-07T07:19:30.926Z,87.91
2018-03-07T07:19:56.431Z,88.01
2018-03-07T07:20:22.078Z,87.91
2018-03-07T07:20:47.598Z,87.82
2018-03-07T07:21:13.094Z,87.53
2018-03-07T07:22:16.735Z,87.91
2018-03-07T07:22:42.316Z,88.1
2018-03-07T07:23:07.688Z,87.34
2018-03-07T07:23:33.213Z,87.53
2018-03-07T07:23:58.747Z,87.43
2018-03-07T07:24:24.313Z,87.34
2018-03-07T07:24:49.752Z,87.62
2018-03-07T07:25:15.278Z,87.62
2018-03-07T07:25:40.943Z,87.62
2018-03-07T07:26:06.463Z,87.62
2018-03-07T07:26:31.959Z,87.82
2018-03-07T07:26:57.414Z,87.62
2018-03-07T07:27:22.916Z,86.96
2018-03-07T07:27:48.418Z,87.34
2018-03-07T07:28:13.960Z,87.43
2018-03-07T07:28:39.505Z,87.34
2018-03-07T07:29:05.015Z,87.34
2018-03-07T07:29:30.550Z,87.43
2018-03-07T07:29:56.035Z,87.15
2018-03-07T07:30:21.751Z,87.34
2018-03-07T07:30:47.256Z,86.96
2018-03-07T07:31:12.728Z,86.96
2018-03-07T07:31:38.177Z,87.24
2018-03-07T07:32:03.675Z,87.1
2018-03-07T07:32:29.140Z,86.77
2018-03-07T07:32:54.556Z,87.01
2018-03-07T07:33:20.070Z,86.82
2018-03-07T07:33:45.478Z,86.72
2018-03-07T07:34:10.962Z,86.82
2018-03-07T07:34:36.400Z,87.19
2018-03-07T07:35:01.871Z,86.72
2018-03-07T07:35:27.320Z,86.91
2018-03-07T07:35:52.837Z,86.34
2018-03-07T07:36:18.240Z,86.82
2018-03-07T07:36:43.783Z,86.53
2018-03-07T07:37:09.253Z,86.53
2018-03-07T07:37:34.682Z,86.34
2018-03-07T07:38:00.217Z,86.63
2018-03-07T07:38:25.659Z,86.63
2018-03-07T07:38:51.106Z,86.05
2018-03-07T07:39:16.555Z,86.34
2018-03-07T07:39:42.085Z,86.53
2018-03-07T07:40:07.799Z,86.43
2018-03-07T07:40:33.389Z,86.53
2018-03-07T07:40:58.877Z,86.63
2018-03-07T07:41:24.441Z,86.05
2018-03-07T07:41:49.963Z,86.15
2018-03-07T07:42:15.508Z,86.05
2018-03-07T07:42:40.983Z,85.96
2018-03-07T07:43:06.467Z,86.05
2018-03-07T07:43:31.944Z,85.77
2018-03-07T07:43:57.394Z,85.86
2018-03-07T07:44:22.915Z,86.15
2018-03-07T07:44:48.419Z,85.49
2018-03-07T07:45:52.026Z,85.49
2018-03-07T07:46:17.524Z,85.58
2018-03-07T07:46:43.031Z,85.39
2018-03-07T07:47:08.513Z,85.49
2018-03-07T07:47:34.025Z,85.58
2018-03-07T07:47:59.513Z,85.2
2018-03-07T07:48:25.023Z,85.01
2018-03-07T07:48:50.527Z,84.63
2018-03-07T07:49:16.007Z,84.48
2018-03-07T07:49:41.478Z,84.58
2018-03-07T07:50:06.964Z,84.58
2018-03-07T07:50:32.482Z,84.63
2018-03-07T07:50:57.996Z,84.58
2018-03-07T07:51:23.490Z,84.82
2018-03-07T07:51:49.002Z,85.3
2018-03-07T07:52:14.507Z,84.82
2018-03-07T07:52:40.011Z,84.86
2018-03-07T07:53:05.512Z,85.01
2018-03-07T07:53:31.012Z,85.3
2018-03-07T07:53:56.532Z,84.82
2018-03-07T07:54:22.034Z,84.63
2018-03-07T07:54:47.573Z,85.24
2018-03-07T07:55:13.048Z,84.53
2018-03-07T07:55:38.544Z,84.77
2018-03-07T07:56:04.048Z,84.67
2018-03-07T07:56:29.549Z,84.63
2018-03-07T07:56:55.071Z,84.29
2018-03-07T07:57:20.541Z,84.39
2018-03-07T07:57:46.042Z,84.39
2018-03-07T07:58:11.530Z,84.29
2018-03-07T07:58:36.994Z,84.1
2018-03-07T07:59:02.460Z,84.48
2018-03-07T07:59:27.934Z,84.48
2018-03-07T07:59:53.421Z,84.58
2018-03-07T08:00:18.864Z,84.48
2018-03-07T08:00:44.327Z,84.77
2018-03-07T08:01:09.780Z,84.67
2018-03-07T08:01:35.244Z,84.48
2018-03-07T08:02:00.785Z,84.2
2018-03-07T08:02:26.352Z,84.2
2018-03-07T08:02:51.887Z,84.29
2018-03-07T08:03:17.324Z,84.2
2018-03-07T08:03:42.784Z,84.29
2018-03-07T08:04:08.253Z,84.48
2018-03-07T08:04:33.739Z,83.72
2018-03-07T08:04:59.343Z,83.62
2018-03-07T08:05:24.791Z,84.01
2018-03-07T08:05:50.286Z,83.72
2018-03-07T08:06:15.801Z,83.72
2018-03-07T08:06:41.360Z,83.82
2018-03-07T08:07:34.849Z,83.72
2018-03-07T08:08:00.344Z,83.62
2018-03-07T08:08:25.834Z,83.53
2018-03-07T08:08:51.319Z,83.91
2018-03-07T08:09:16.833Z,83.62
2018-03-07T08:09:42.212Z,83.34
2018-03-07T08:10:07.660Z,83.15
2018-03-07T08:10:33.119Z,83.25
2018-03-07T08:10:58.581Z,83.34
2018-03-07T08:11:24.080Z,83.44
2018-03-07T08:11:49.524Z,82.68
2018-03-07T08:12:15.017Z,82.68
2018-03-07T08:13:18.616Z,82.87
2018-03-07T08:13:44.113Z,82.87
2018-03-07T08:14:09.605Z,82.87
2018-03-07T08:14:35.164Z,82.77
2018-03-07T08:15:00.652Z,82.77
2018-03-07T08:15:26.171Z,82.77
2018-03-07T08:15:51.647Z,82.96
2018-03-07T08:17:05.455Z,82.2
2018-03-07T08:17:30.942Z,82.68
2018-03-07T08:17:56.490Z,82.49
2018-03-07T08:18:21.983Z,82.58
2018-03-07T08:18:47.453Z,82.58
2018-03-07T08:19:12.972Z,82.68
2018-03-07T08:19:38.477Z,82.68
2018-03-07T08:20:04.198Z,82.29
2018-03-07T08:20:29.688Z,82.1
2018-03-07T08:20:55.246Z,82.1
2018-03-07T08:21:20.713Z,82.29
2018-03-07T08:21:46.217Z,81.63
2018-03-07T08:22:11.703Z,81.73
2018-03-07T08:22:37.212Z,81.73
2018-03-07T08:23:02.806Z,81.54
2018-03-07T08:23:28.302Z,82.01
2018-03-07T08:23:53.773Z,81.92
2018-03-07T08:24:19.255Z,81.73
2018-03-07T08:24:44.783Z,81.63
2018-03-07T08:25:10.280Z,81.82
2018-03-07T08:25:35.763Z,81.54
2018-03-07T08:26:01.238Z,81.82
2018-03-07T08:26:26.720Z,81.44
2018-03-07T08:26:52.250Z,81.54
2018-03-07T08:27:17.760Z,81.35
2018-03-07T08:27:43.301Z,81.16
2018-03-07T08:28:08.750Z,81.25
2018-03-07T08:28:34.264Z,81.25
2018-03-07T08:28:59.809Z,80.96
2018-03-07T08:29:25.297Z,80.96
2018-03-07T08:29:50.803Z,80.58
2018-03-07T08:30:16.327Z,80.68
2018-03-07T08:30:41.826Z,80.49
2018-03-07T08:31:07.389Z,80.02
2018-03-07T08:31:32.858Z,80.3
2018-03-07T08:31:58.388Z,79.92
2018-03-07T08:32:23.949Z,80.02
2018-03-07T08:32:49.461Z,80.11
2018-03-07T08:33:14.946Z,80.24
2018-03-07T08:33:40.439Z,80.53
2018-03-07T08:34:05.925Z,80.34
2018-03-07T08:34:31.412Z,80.44
2018-03-07T08:34:56.923Z,80.53
2018-03-07T08:35:22.401Z,80.63
2018-03-07T08:35:47.941Z,80.53
2018-03-07T08:36:13.425Z,80.72
2018-03-07T08:37:28.357Z,80.05
2018-03-07T08:37:53.824Z,80.05
2018-03-07T08:38:19.291Z,79.58
2018-03-07T08:38:44.797Z,79.77
2018-03-07T08:39:10.318Z,80.15
2018-03-07T08:39:35.846Z,79.68
2018-03-07T08:40:01.300Z,80.24
2018-03-07T08:41:09.994Z,79.58
2018-03-07T08:41:35.512Z,79.77
2018-03-07T08:42:01.013Z,79.96
2018-03-07T08:42:26.542Z,79.3
2018-03-07T08:42:52.058Z,79.2
2018-03-07T08:43:17.534Z,79.11
2018-03-07T08:43:43.079Z,79.2
2018-03-07T08:44:08.558Z,79.01
2018-03-07T08:44:34.065Z,78.44
2018-03-07T08:44:59.581Z,78.16
2018-03-07T08:45:25.058Z,78.29
2018-03-07T08:45:50.560Z,77.91
2018-03-07T08:46:16.038Z,78.1
2018-03-07T08:46:41.551Z,77.72
2018-03-07T08:47:07.048Z,77.62
2018-03-07T08:47:32.552Z,77.34
2018-03-07T08:47:58.026Z,77.53
2018-03-07T08:48:23.570Z,77.34
2018-03-07T08:48:49.200Z,77.62
2018-03-07T08:49:14.698Z,77.62
2018-03-07T08:49:40.225Z,77.62
2018-03-07T08:50:05.776Z,77.91
2018-03-07T08:50:31.299Z,77.43
2018-03-07T08:50:56.765Z,77.72
2018-03-07T08:51:22.252Z,77.91
2018-03-07T08:51:47.765Z,78.1
2018-03-07T08:52:13.234Z,77.34
2018-03-07T08:52:38.773Z,77.53
2018-03-07T08:53:04.292Z,77.34
2018-03-07T08:53:29.806Z,77.43
2018-03-07T08:53:55.266Z,77.15
2018-03-07T08:54:20.796Z,77.34
2018-03-07T08:54:46.355Z,77.62
2018-03-07T08:55:11.956Z,76.96
2018-03-07T08:55:37.419Z,77.53
2018-03-07T08:56:02.943Z,77.53
2018-03-07T08:56:56.399Z,76.57
2018-03-07T08:57:21.907Z,76.57
2018-03-07T08:57:47.376Z,76.67
2018-03-07T08:58:12.878Z,76.48
2018-03-07T08:58:38.372Z,75.91
2018-03-07T08:59:03.862Z,75.95
2018-03-07T08:59:29.390Z,75.57
2018-03-07T08:59:54.907Z,76.01
2018-03-07T09:00:20.394Z,76.23
2018-03-07T09:00:45.857Z,75.38
2018-03-07T09:01:11.370Z,75.47
2018-03-07T09:01:36.851Z,75.09
2018-03-07T09:02:02.352Z,74.8
2018-03-07T09:02:27.836Z,74.52
2018-03-07T09:02:53.374Z,74.52
2018-03-07T09:03:18.859Z,74.62
2018-03-07T09:03:44.352Z,74.33
2018-03-07T09:04:09.834Z,74.9
2018-03-07T09:04:35.308Z,74.8
2018-03-07T09:05:00.819Z,74.62
2018-03-07T09:05:26.308Z,74.8
2018-03-07T09:05:51.821Z,74.71
2018-03-07T09:06:17.266Z,74.8
2018-03-07T09:06:42.735Z,74.8
2018-03-07T09:07:08.248Z,74.62
2018-03-07T09:07:33.764Z,74.62
2018-03-07T09:07:59.282Z,74.43
2018-03-07T09:08:24.740Z,74.43
2018-03-07T09:08:50.229Z,74.62
2018-03-07T09:09:15.707Z,74.52
2018-03-07T09:09:41.203Z,74.43
2018-03-07T09:10:06.687Z,74.24
2018-03-07T09:10:32.193Z,74.9
2018-03-07T09:10:57.731Z,74.8
2018-03-07T09:11:23.262Z,74.24
2018-03-07T09:11:48.764Z,74.24
2018-03-07T09:12:14.243Z,74.04
2018-03-07T09:12:39.766Z,74.04
2018-03-07T09:13:05.244Z,74.14
2018-03-07T09:13:30.748Z,74.04
2018-03-07T09:13:56.255Z,74.43
2018-03-07T09:14:21.756Z,74.52
2018-03-07T09:14:47.229Z,74.24
2018-03-07T09:15:12.747Z,74.33
2018-03-07T09:15:38.202Z,73.95
2018-03-07T09:16:03.678Z,73.66
2018-03-07T09:16:29.201Z,73.76
2018-03-07T09:16:54.666Z,73.57
2018-03-07T09:17:48.110Z,72.81
2018-03-07T09:18:13.618Z,73.66
2018-03-07T09:18:39.120Z,73.47
2018-03-07T09:19:04.607Z,72.9
2018-03-07T09:19:30.097Z,73.28
2018-03-07T09:19:55.597Z,73.38
2018-03-07T09:20:21.092Z,73.47
2018-03-07T09:20:46.610Z,73.38
2018-03-07T09:21:12.112Z,73.19
2018-03-07T09:21:37.607Z,73.1
2018-03-07T09:22:03.086Z,72.71
2018-03-07T09:22:28.580Z,72.9
2018-03-07T09:22:54.082Z,73.28
2018-03-07T09:23:19.632Z,73.57
2018-03-07T09:23:45.132Z,73.57
2018-03-07T09:24:10.610Z,73.66
2018-03-07T09:24:36.098Z,73.76
2018-03-07T09:25:01.598Z,74.04
2018-03-07T09:25:27.091Z,74.37
2018-03-07T09:25:52.561Z,74.08
2018-03-07T09:26:18.085Z,74.04
2018-03-07T09:26:43.584Z,73.32
2018-03-07T09:27:09.075Z,72.85
2018-03-07T09:27:34.565Z,72.46
2018-03-07T09:28:00.043Z,71.98
2018-03-07T09:28:25.567Z,71.22
2018-03-07T09:28:51.111Z,71.61
2018-03-07T09:29:16.574Z,71.22
2018-03-07T09:29:42.066Z,70.94
2018-03-07T09:30:07.575Z,70.75
2018-03-07T09:30:33.134Z,70.47
2018-03-07T09:30:58.626Z,70.65
2018-03-07T09:31:24.066Z,70.75
2018-03-07T09:31:49.528Z,70.75
2018-03-07T09:32:15.027Z,70.94
2018-03-07T09:33:18.664Z,71.7
2018-03-07T09:33:44.163Z,71.32
2018-03-07T09:34:09.663Z,71.89
2018-03-07T09:34:35.172Z,71.7
2018-03-07T09:35:00.663Z,71.22
2018-03-07T09:35:26.147Z,70.94
2018-03-07T09:35:51.645Z,69.99
2018-03-07T09:36:17.131Z,70.37
2018-03-07T09:36:42.618Z,70.18
2018-03-07T09:37:08.108Z,70.27
2018-03-07T09:37:33.672Z,69.7
2018-03-07T09:37:59.150Z,70.27
2018-03-07T09:38:24.650Z,70.18
2018-03-07T09:38:50.141Z,70.08
2018-03-07T09:39:15.616Z,70.27
2018-03-07T09:39:41.153Z,70.37
2018-03-07T09:40:06.634Z,70.56
2018-03-07T09:40:32.113Z,70.27
2018-03-07T09:40:57.602Z,69.99
2018-03-07T09:41:23.094Z,69.7
2018-03-07T09:41:48.585Z,69.42
2018-03-07T09:42:14.094Z,69.13
2018-03-07T09:42:39.572Z,68.75
2018-03-07T09:43:05.101Z,68.75
2018-03-07T09:43:30.593Z,68.18
2018-03-07T09:43:56.076Z,68.37
2018-03-07T09:45:04.816Z,67.61
2018-03-07T09:45:30.336Z,67.89
2018-03-07T09:45:55.826Z,67.51
2018-03-07T09:46:21.294Z,67.89
2018-03-07T09:46:46.791Z,67.8
2018-03-07T09:47:12.333Z,67.7
2018-03-07T09:47:37.791Z,67.51
2018-03-07T09:48:03.312Z,67.89
2018-03-07T09:48:28.826Z,67.8
2018-03-07T09:48:54.292Z,67.41
2018-03-07T09:49:19.787Z,67.32
2018-03-07T09:50:23.394Z,67.32
2018-03-07T09:50:48.889Z,66.94
2018-03-07T09:51:14.374Z,66.94
2018-03-07T09:51:39.862Z,66.66
2018-03-07T09:52:05.377Z,66.18
2018-03-07T09:52:30.832Z,66.08
2018-03-07T09:52:56.302Z,66.27
2018-03-07T09:53:21.767Z,66.85
2018-03-07T09:53:47.272Z,66.75
2018-03-07T09:54:12.745Z,65.99
2018-03-07T09:54:38.259Z,65.89
2018-03-07T09:55:03.719Z,66.27
2018-03-07T09:55:29.239Z,66.08
2018-03-07T09:55:54.744Z,66.27
2018-03-07T09:56:20.329Z,66.18
2018-03-07T09:56:45.730Z,66.08
2018-03-07T09:57:11.201Z,65.32
2018-03-07T09:57:36.634Z,64.75
2018-03-07T09:58:02.108Z,64.56
2018-03-07T09:58:27.603Z,64.47
2018-03-07T09:58:53.083Z,64.94
2018-03-07T09:59:18.572Z,64.75
2018-03-07T10:00:18.084Z,65.51
2018-03-07T10:00:43.607Z,65.42
2018-03-07T10:01:52.337Z,64.94
2018-03-07T10:02:17.795Z,65.23
2018-03-07T10:02:43.311Z,64.65
2018-03-07T10:03:08.806Z,64.28
2018-03-07T10:03:34.294Z,63.99
2018-03-07T10:03:59.785Z,63.99
2018-03-07T10:04:25.292Z,63.99
2018-03-07T10:04:50.798Z,64.75
2018-03-07T10:05:16.276Z,64.37
2018-03-07T10:05:41.741Z,65.03
2018-03-07T10:06:07.215Z,64.65
2018-03-07T10:06:32.723Z,64.18
2018-03-07T10:06:58.206Z,63.42
2018-03-07T10:07:23.724Z,63.89
2018-03-07T10:07:49.183Z,63.51
2018-03-07T10:08:14.676Z,63.7
2018-03-07T10:08:40.170Z,63.32
2018-03-07T10:09:05.674Z,63.42
2018-03-07T10:09:31.152Z,63.51
2018-03-07T10:09:56.615Z,63.51
2018-03-07T10:10:22.097Z,63.89
2018-03-07T10:10:47.549Z,63.89
2018-03-07T10:11:13.050Z,63.8
2018-03-07T10:11:38.536Z,63.8
2018-03-07T10:12:04.109Z,63.99
2018-03-07T10:12:29.568Z,63.35
2018-03-07T10:12:55.073Z,63.23
2018-03-07T10:13:20.571Z,63.13
2018-03-07T10:13:46.041Z,63.13
2018-03-07T10:14:11.526Z,63.32
2018-03-07T10:14:37.055Z,63.51
2018-03-07T10:15:02.494Z,62.68
2018-03-07T10:15:27.973Z,62.68
2018-03-07T10:15:53.472Z,62.68
2018-03-07T10:16:52.040Z,63.45
2018-03-07T10:17:17.523Z,63.64
2018-03-07T10:17:43.007Z,63.83
2018-03-07T10:18:08.505Z,64.31
2018-03-07T10:18:34.050Z,64.12
2018-03-07T10:18:59.493Z,64.78
2018-03-07T10:19:24.984Z,64.5
2018-03-07T10:19:50.455Z,64.59
2018-03-07T10:20:15.977Z,64.5
2018-03-07T10:20:41.444Z,64.21
2018-03-07T10:21:06.929Z,64.12
2018-03-07T10:21:32.424Z,63.73
2018-03-07T10:21:57.889Z,63.64
2018-03-07T10:22:23.375Z,64.02
2018-03-07T10:22:48.939Z,63.64
2018-03-07T10:23:14.426Z,63.45
2018-03-07T10:23:39.910Z,64.12
2018-03-07T10:24:05.385Z,63.83
2018-03-07T10:24:30.856Z,64.02
2018-03-07T10:24:56.333Z,63.83
2018-03-07T10:25:21.874Z,63.54
2018-03-07T10:25:47.391Z,63.64
2018-03-07T10:26:12.914Z,63.35
2018-03-07T10:26:38.451Z,62.78
2018-03-07T10:27:03.922Z,63.07
2018-03-07T10:27:29.420Z,63.35
2018-03-07T10:27:54.951Z,63.45
2018-03-07T10:28:20.424Z,62.68
2018-03-07T10:28:45.918Z,62.97
2018-03-07T10:29:11.435Z,62.02
2018-03-07T10:29:36.922Z,62.21
2018-03-07T10:30:02.388Z,62.02
2018-03-07T10:30:27.874Z,61.73
2018-03-07T10:30:53.422Z,61.83
2018-03-07T10:31:18.912Z,62.21
2018-03-07T10:31:44.363Z,62.3
2018-03-07T10:32:09.841Z,62.12
2018-03-07T10:32:35.328Z,62.02
2018-03-07T10:33:00.842Z,62.3
2018-03-07T10:33:26.306Z,62.12
2018-03-07T10:33:51.790Z,63.07
2018-03-07T10:34:17.326Z,62.68
2018-03-07T10:34:42.802Z,62.68
2018-03-07T10:35:08.329Z,62.59
2018-03-07T10:35:33.831Z,62.78
2018-03-07T10:35:59.315Z,62.78
2018-03-07T10:36:24.823Z,63.48
2018-03-07T10:36:50.289Z,63.07
2018-03-07T10:37:15.781Z,63.2
2018-03-07T10:37:41.266Z,63.39
2018-03-07T10:38:06.791Z,63.76
2018-03-07T10:38:32.281Z,63.57
2018-03-07T10:38:57.746Z,63.57
2018-03-07T10:39:23.264Z,63.2
2018-03-07T10:39:48.740Z,62.91
2018-03-07T10:40:14.221Z,62.91
2018-03-07T10:40:39.671Z,62.43
2018-03-07T10:41:05.210Z,63
2018-03-07T10:41:30.692Z,62.81
2018-03-07T10:41:56.154Z,63.48
2018-03-07T10:42:21.656Z,63.39
2018-03-07T10:42:47.135Z,63.29
2018-03-07T10:43:12.662Z,63
2018-03-07T10:43:38.184Z,63.2
2018-03-07T10:44:03.681Z,63.48
2018-03-07T10:44:29.165Z,63.48
2018-03-07T10:44:54.657Z,62.43
2018-03-07T10:45:20.173Z,61.96
2018-03-07T10:45:45.625Z,61.57
2018-03-07T10:46:11.090Z,60.91